sensor_id;sensor_type;location;lat;lon;timestamp;P1;durP1;ratioP1;P2;durP2;ratioP2
74523;SDS011;63074;44.696;10.358;2023-08-20T00:00:45;13.32;;;11.35;;
74523;SDS011;63074;44.696;10.358;2023-08-20T00:03:12;16.98;;;11.13;;
74523;SDS011;63074;44.696;10.358;2023-08-20T00:05:39;14.52;;;11.15;;
74523;SDS011;63074;44.696;10.358;2023-08-20T00:08:05;14.90;;;12.38;;
74523;SDS011;63074;44.696;10.358;2023-08-20T00:10:32;14.23;;;10.50;;
74523;SDS011;63074;44.696;10.358;2023-08-20T00:12:58;13.93;;;10.50;;
74523;SDS011;63074;44.696;10.358;2023-08-20T00:15:25;16.35;;;11.13;;
74523;SDS011;63074;44.696;10.358;2023-08-20T00:17:54;15.55;;;11.52;;
74523;SDS011;63074;44.696;10.358;2023-08-20T00:20:20;13.00;;;10.73;;
74523;SDS011;63074;44.696;10.358;2023-08-20T00:22:47;14.10;;;10.25;;
74523;SDS011;63074;44.696;10.358;2023-08-20T00:25:15;14.88;;;10.35;;
74523;SDS011;63074;44.696;10.358;2023-08-20T00:27:42;13.27;;;10.77;;
74523;SDS011;63074;44.696;10.358;2023-08-20T00:30:09;14.23;;;10.57;;
74523;SDS011;63074;44.696;10.358;2023-08-20T00:32:36;12.30;;;9.90;;
74523;SDS011;63074;44.696;10.358;2023-08-20T00:35:03;12.80;;;10.40;;
74523;SDS011;63074;44.696;10.358;2023-08-20T00:37:30;14.05;;;10.73;;
74523;SDS011;63074;44.696;10.358;2023-08-20T00:39:57;13.45;;;10.10;;
74523;SDS011;63074;44.696;10.358;2023-08-20T00:42:24;15.80;;;10.05;;
74523;SDS011;63074;44.696;10.358;2023-08-20T00:44:53;12.48;;;10.43;;
74523;SDS011;63074;44.696;10.358;2023-08-20T00:47:19;14.23;;;10.85;;
74523;SDS011;63074;44.696;10.358;2023-08-20T00:49:46;14.15;;;10.50;;
74523;SDS011;63074;44.696;10.358;2023-08-20T00:52:14;11.63;;;9.68;;
74523;SDS011;63074;44.696;10.358;2023-08-20T00:54:41;10.95;;;9.38;;
74523;SDS011;63074;44.696;10.358;2023-08-20T00:57:11;12.50;;;9.63;;
74523;SDS011;63074;44.696;10.358;2023-08-20T00:59:39;11.77;;;9.65;;
74523;SDS011;63074;44.696;10.358;2023-08-20T01:02:06;13.30;;;9.30;;
74523;SDS011;63074;44.696;10.358;2023-08-20T01:04:32;12.43;;;9.63;;
74523;SDS011;63074;44.696;10.358;2023-08-20T01:07:04;12.02;;;9.13;;
74523;SDS011;63074;44.696;10.358;2023-08-20T01:12:37;13.70;;;10.35;;
74523;SDS011;63074;44.696;10.358;2023-08-20T01:15:06;12.57;;;9.80;;
74523;SDS011;63074;44.696;10.358;2023-08-20T01:17:38;14.52;;;9.52;;
74523;SDS011;63074;44.696;10.358;2023-08-20T01:20:05;13.32;;;9.80;;
74523;SDS011;63074;44.696;10.358;2023-08-20T01:28:26;15.90;;;9.50;;
74523;SDS011;63074;44.696;10.358;2023-08-20T01:30:55;12.63;;;9.73;;
74523;SDS011;63074;44.696;10.358;2023-08-20T01:33:23;13.75;;;9.90;;
74523;SDS011;63074;44.696;10.358;2023-08-20T01:35:51;12.88;;;10.63;;
74523;SDS011;63074;44.696;10.358;2023-08-20T01:38:18;12.68;;;8.45;;
74523;SDS011;63074;44.696;10.358;2023-08-20T01:40:45;10.55;;;8.20;;
74523;SDS011;63074;44.696;10.358;2023-08-20T01:43:12;12.10;;;8.27;;
74523;SDS011;63074;44.696;10.358;2023-08-20T01:45:38;13.02;;;8.85;;
74523;SDS011;63074;44.696;10.358;2023-08-20T01:48:04;10.63;;;8.35;;
74523;SDS011;63074;44.696;10.358;2023-08-20T01:50:31;12.75;;;8.70;;
74523;SDS011;63074;44.696;10.358;2023-08-20T01:52:58;10.88;;;8.45;;
74523;SDS011;63074;44.696;10.358;2023-08-20T01:55:24;12.18;;;8.93;;
74523;SDS011;63074;44.696;10.358;2023-08-20T01:57:50;11.45;;;9.20;;
74523;SDS011;63074;44.696;10.358;2023-08-20T02:00:16;11.60;;;8.98;;
74523;SDS011;63074;44.696;10.358;2023-08-20T02:02:43;11.48;;;8.27;;
74523;SDS011;63074;44.696;10.358;2023-08-20T02:05:09;11.07;;;9.07;;
74523;SDS011;63074;44.696;10.358;2023-08-20T02:07:35;10.55;;;9.05;;
74523;SDS011;63074;44.696;10.358;2023-08-20T02:10:02;11.35;;;8.55;;
74523;SDS011;63074;44.696;10.358;2023-08-20T02:12:28;9.98;;;8.23;;
74523;SDS011;63074;44.696;10.358;2023-08-20T02:14:54;12.63;;;9.10;;
74523;SDS011;63074;44.696;10.358;2023-08-20T02:17:20;13.02;;;9.15;;
74523;SDS011;63074;44.696;10.358;2023-08-20T02:19:48;11.35;;;8.20;;
74523;SDS011;63074;44.696;10.358;2023-08-20T02:22:14;11.45;;;8.52;;
74523;SDS011;63074;44.696;10.358;2023-08-20T02:24:40;12.55;;;8.88;;
74523;SDS011;63074;44.696;10.358;2023-08-20T02:27:07;11.52;;;8.38;;
74523;SDS011;63074;44.696;10.358;2023-08-20T02:29:33;12.20;;;8.90;;
74523;SDS011;63074;44.696;10.358;2023-08-20T02:31:59;12.93;;;8.93;;
74523;SDS011;63074;44.696;10.358;2023-08-20T02:34:25;11.73;;;9.50;;
74523;SDS011;63074;44.696;10.358;2023-08-20T02:36:51;12.40;;;9.23;;
74523;SDS011;63074;44.696;10.358;2023-08-20T02:39:17;13.75;;;9.95;;
74523;SDS011;63074;44.696;10.358;2023-08-20T02:41:45;12.60;;;10.18;;
74523;SDS011;63074;44.696;10.358;2023-08-20T02:44:11;12.82;;;9.88;;
74523;SDS011;63074;44.696;10.358;2023-08-20T02:46:38;13.07;;;9.65;;
74523;SDS011;63074;44.696;10.358;2023-08-20T02:49:05;12.95;;;10.68;;
74523;SDS011;63074;44.696;10.358;2023-08-20T02:51:32;13.32;;;10.10;;
74523;SDS011;63074;44.696;10.358;2023-08-20T02:53:58;13.80;;;10.63;;
74523;SDS011;63074;44.696;10.358;2023-08-20T02:56:24;14.43;;;10.10;;
74523;SDS011;63074;44.696;10.358;2023-08-20T02:58:50;14.43;;;10.50;;
74523;SDS011;63074;44.696;10.358;2023-08-20T03:01:23;13.45;;;10.43;;
74523;SDS011;63074;44.696;10.358;2023-08-20T03:03:50;12.23;;;9.73;;
74523;SDS011;63074;44.696;10.358;2023-08-20T03:06:16;14.05;;;10.63;;
74523;SDS011;63074;44.696;10.358;2023-08-20T03:08:43;13.98;;;10.35;;
74523;SDS011;63074;44.696;10.358;2023-08-20T03:11:09;13.30;;;9.98;;
74523;SDS011;63074;44.696;10.358;2023-08-20T03:13:35;13.73;;;10.85;;
74523;SDS011;63074;44.696;10.358;2023-08-20T03:16:02;13.07;;;10.70;;
74523;SDS011;63074;44.696;10.358;2023-08-20T03:18:28;12.40;;;11.00;;
74523;SDS011;63074;44.696;10.358;2023-08-20T03:20:55;14.25;;;10.95;;
74523;SDS011;63074;44.696;10.358;2023-08-20T03:23:21;13.38;;;10.45;;
74523;SDS011;63074;44.696;10.358;2023-08-20T03:25:48;15.65;;;11.13;;
74523;SDS011;63074;44.696;10.358;2023-08-20T03:28:15;13.63;;;10.45;;
74523;SDS011;63074;44.696;10.358;2023-08-20T03:30:42;15.90;;;10.60;;
74523;SDS011;63074;44.696;10.358;2023-08-20T03:33:09;12.75;;;10.65;;
74523;SDS011;63074;44.696;10.358;2023-08-20T03:35:35;15.75;;;11.02;;
74523;SDS011;63074;44.696;10.358;2023-08-20T03:38:01;13.65;;;10.52;;
74523;SDS011;63074;44.696;10.358;2023-08-20T03:40:27;13.32;;;10.07;;
74523;SDS011;63074;44.696;10.358;2023-08-20T03:42:54;13.63;;;10.85;;
74523;SDS011;63074;44.696;10.358;2023-08-20T03:45:20;13.85;;;10.40;;
74523;SDS011;63074;44.696;10.358;2023-08-20T03:47:46;17.55;;;10.88;;
74523;SDS011;63074;44.696;10.358;2023-08-20T03:50:12;15.02;;;10.95;;
74523;SDS011;63074;44.696;10.358;2023-08-20T03:52:38;14.50;;;9.77;;
74523;SDS011;63074;44.696;10.358;2023-08-20T03:55:05;11.75;;;10.07;;
74523;SDS011;63074;44.696;10.358;2023-08-20T03:57:31;13.43;;;10.35;;
74523;SDS011;63074;44.696;10.358;2023-08-20T03:59:57;13.63;;;10.43;;
74523;SDS011;63074;44.696;10.358;2023-08-20T04:02:23;13.77;;;9.93;;
74523;SDS011;63074;44.696;10.358;2023-08-20T04:04:50;17.17;;;10.07;;
74523;SDS011;63074;44.696;10.358;2023-08-20T04:07:17;15.90;;;10.73;;
74523;SDS011;63074;44.696;10.358;2023-08-20T04:09:44;14.02;;;10.48;;
74523;SDS011;63074;44.696;10.358;2023-08-20T04:12:10;12.82;;;10.48;;
74523;SDS011;63074;44.696;10.358;2023-08-20T04:14:36;11.70;;;9.75;;
74523;SDS011;63074;44.696;10.358;2023-08-20T04:17:02;13.57;;;10.57;;
74523;SDS011;63074;44.696;10.358;2023-08-20T04:19:28;11.65;;;9.82;;
74523;SDS011;63074;44.696;10.358;2023-08-20T04:21:54;12.20;;;9.70;;
74523;SDS011;63074;44.696;10.358;2023-08-20T04:24:21;13.73;;;10.73;;
74523;SDS011;63074;44.696;10.358;2023-08-20T04:26:47;17.55;;;10.10;;
74523;SDS011;63074;44.696;10.358;2023-08-20T04:29:13;13.65;;;9.85;;
74523;SDS011;63074;44.696;10.358;2023-08-20T04:31:39;14.35;;;10.15;;
74523;SDS011;63074;44.696;10.358;2023-08-20T04:34:05;14.07;;;9.20;;
74523;SDS011;63074;44.696;10.358;2023-08-20T04:36:31;11.93;;;8.38;;
74523;SDS011;63074;44.696;10.358;2023-08-20T04:38:58;10.98;;;8.38;;
74523;SDS011;63074;44.696;10.358;2023-08-20T04:41:26;10.70;;;8.32;;
74523;SDS011;63074;44.696;10.358;2023-08-20T04:43:52;15.10;;;9.00;;
74523;SDS011;63074;44.696;10.358;2023-08-20T04:46:18;10.90;;;8.38;;
74523;SDS011;63074;44.696;10.358;2023-08-20T04:48:45;15.25;;;8.73;;
74523;SDS011;63074;44.696;10.358;2023-08-20T04:51:12;12.82;;;8.57;;
74523;SDS011;63074;44.696;10.358;2023-08-20T04:53:38;11.82;;;8.00;;
74523;SDS011;63074;44.696;10.358;2023-08-20T04:56:04;10.25;;;7.70;;
74523;SDS011;63074;44.696;10.358;2023-08-20T04:58:31;9.45;;;8.27;;
74523;SDS011;63074;44.696;10.358;2023-08-20T05:00:57;12.27;;;8.00;;
74523;SDS011;63074;44.696;10.358;2023-08-20T05:03:24;10.02;;;7.72;;
74523;SDS011;63074;44.696;10.358;2023-08-20T05:05:50;11.30;;;7.72;;
74523;SDS011;63074;44.696;10.358;2023-08-20T05:08:16;9.23;;;7.28;;
74523;SDS011;63074;44.696;10.358;2023-08-20T05:10:43;10.02;;;7.75;;
74523;SDS011;63074;44.696;10.358;2023-08-20T05:13:09;9.80;;;7.78;;
74523;SDS011;63074;44.696;10.358;2023-08-20T05:15:36;10.50;;;7.68;;
74523;SDS011;63074;44.696;10.358;2023-08-20T05:18:02;9.95;;;7.72;;
74523;SDS011;63074;44.696;10.358;2023-08-20T05:20:28;11.38;;;7.88;;
74523;SDS011;63074;44.696;10.358;2023-08-20T05:22:55;10.88;;;8.25;;
74523;SDS011;63074;44.696;10.358;2023-08-20T05:25:21;12.50;;;7.93;;
74523;SDS011;63074;44.696;10.358;2023-08-20T05:27:48;12.93;;;8.98;;
74523;SDS011;63074;44.696;10.358;2023-08-20T05:30:14;14.07;;;8.77;;
74523;SDS011;63074;44.696;10.358;2023-08-20T05:32:40;13.20;;;7.85;;
74523;SDS011;63074;44.696;10.358;2023-08-20T05:35:06;11.82;;;7.82;;
74523;SDS011;63074;44.696;10.358;2023-08-20T05:37:33;10.20;;;7.07;;
74523;SDS011;63074;44.696;10.358;2023-08-20T05:39:59;9.25;;;7.15;;
74523;SDS011;63074;44.696;10.358;2023-08-20T05:42:25;8.88;;;6.80;;
74523;SDS011;63074;44.696;10.358;2023-08-20T05:44:52;11.00;;;8.02;;
74523;SDS011;63074;44.696;10.358;2023-08-20T05:47:18;8.45;;;6.78;;
74523;SDS011;63074;44.696;10.358;2023-08-20T05:49:45;10.40;;;6.80;;
74523;SDS011;63074;44.696;10.358;2023-08-20T05:52:11;10.18;;;7.55;;
74523;SDS011;63074;44.696;10.358;2023-08-20T05:54:37;9.52;;;7.20;;
74523;SDS011;63074;44.696;10.358;2023-08-20T05:57:03;8.52;;;7.45;;
74523;SDS011;63074;44.696;10.358;2023-08-20T05:59:29;11.18;;;8.23;;
74523;SDS011;63074;44.696;10.358;2023-08-20T06:01:56;10.20;;;7.88;;
74523;SDS011;63074;44.696;10.358;2023-08-20T06:04:22;13.50;;;9.48;;
74523;SDS011;63074;44.696;10.358;2023-08-20T06:06:48;12.77;;;9.60;;
74523;SDS011;63074;44.696;10.358;2023-08-20T06:09:14;14.77;;;10.23;;
74523;SDS011;63074;44.696;10.358;2023-08-20T06:11:41;15.30;;;10.32;;
74523;SDS011;63074;44.696;10.358;2023-08-20T06:14:07;16.50;;;10.73;;
74523;SDS011;63074;44.696;10.358;2023-08-20T06:16:33;15.23;;;11.13;;
74523;SDS011;63074;44.696;10.358;2023-08-20T06:18:59;17.52;;;12.68;;
74523;SDS011;63074;44.696;10.358;2023-08-20T06:21:25;21.20;;;15.15;;
74523;SDS011;63074;44.696;10.358;2023-08-20T06:23:52;20.45;;;14.90;;
74523;SDS011;63074;44.696;10.358;2023-08-20T06:26:18;22.08;;;14.55;;
74523;SDS011;63074;44.696;10.358;2023-08-20T06:28:45;21.80;;;14.43;;
74523;SDS011;63074;44.696;10.358;2023-08-20T06:31:11;19.02;;;14.10;;
74523;SDS011;63074;44.696;10.358;2023-08-20T06:33:37;20.10;;;14.48;;
74523;SDS011;63074;44.696;10.358;2023-08-20T06:36:03;22.23;;;15.25;;
74523;SDS011;63074;44.696;10.358;2023-08-20T06:38:30;19.52;;;14.40;;
74523;SDS011;63074;44.696;10.358;2023-08-20T06:40:56;20.70;;;15.10;;
74523;SDS011;63074;44.696;10.358;2023-08-20T06:43:22;19.77;;;13.27;;
74523;SDS011;63074;44.696;10.358;2023-08-20T06:45:48;18.70;;;13.38;;
74523;SDS011;63074;44.696;10.358;2023-08-20T06:48:14;18.73;;;12.85;;
74523;SDS011;63074;44.696;10.358;2023-08-20T06:50:41;17.25;;;12.95;;
74523;SDS011;63074;44.696;10.358;2023-08-20T06:53:07;14.82;;;11.32;;
74523;SDS011;63074;44.696;10.358;2023-08-20T06:55:34;16.30;;;11.80;;
74523;SDS011;63074;44.696;10.358;2023-08-20T06:58:01;18.30;;;12.48;;
74523;SDS011;63074;44.696;10.358;2023-08-20T07:00:27;14.73;;;11.57;;
74523;SDS011;63074;44.696;10.358;2023-08-20T07:02:53;16.17;;;12.05;;
74523;SDS011;63074;44.696;10.358;2023-08-20T07:05:20;13.88;;;11.57;;
74523;SDS011;63074;44.696;10.358;2023-08-20T07:07:46;16.55;;;12.15;;
74523;SDS011;63074;44.696;10.358;2023-08-20T07:10:12;14.15;;;10.75;;
74523;SDS011;63074;44.696;10.358;2023-08-20T07:12:38;17.95;;;11.55;;
74523;SDS011;63074;44.696;10.358;2023-08-20T07:15:05;14.07;;;11.50;;
74523;SDS011;63074;44.696;10.358;2023-08-20T07:17:32;17.55;;;11.73;;
74523;SDS011;63074;44.696;10.358;2023-08-20T07:19:58;14.40;;;11.07;;
74523;SDS011;63074;44.696;10.358;2023-08-20T07:22:24;14.27;;;10.35;;
74523;SDS011;63074;44.696;10.358;2023-08-20T07:24:50;15.13;;;11.50;;
74523;SDS011;63074;44.696;10.358;2023-08-20T07:27:16;14.80;;;10.65;;
74523;SDS011;63074;44.696;10.358;2023-08-20T07:29:43;14.48;;;11.73;;
74523;SDS011;63074;44.696;10.358;2023-08-20T07:32:09;14.07;;;11.32;;
74523;SDS011;63074;44.696;10.358;2023-08-20T07:34:36;13.90;;;10.77;;
74523;SDS011;63074;44.696;10.358;2023-08-20T07:37:03;11.52;;;9.48;;
74523;SDS011;63074;44.696;10.358;2023-08-20T07:39:30;13.52;;;9.38;;
74523;SDS011;63074;44.696;10.358;2023-08-20T07:41:56;12.88;;;10.55;;
74523;SDS011;63074;44.696;10.358;2023-08-20T07:44:22;12.02;;;8.95;;
74523;SDS011;63074;44.696;10.358;2023-08-20T07:46:48;11.27;;;9.30;;
74523;SDS011;63074;44.696;10.358;2023-08-20T07:49:14;15.23;;;9.88;;
74523;SDS011;63074;44.696;10.358;2023-08-20T07:51:41;13.43;;;10.25;;
74523;SDS011;63074;44.696;10.358;2023-08-20T07:54:07;14.63;;;10.48;;
74523;SDS011;63074;44.696;10.358;2023-08-20T07:56:33;11.15;;;9.45;;
74523;SDS011;63074;44.696;10.358;2023-08-20T07:58:59;14.18;;;9.93;;
74523;SDS011;63074;44.696;10.358;2023-08-20T08:01:25;12.57;;;8.93;;
74523;SDS011;63074;44.696;10.358;2023-08-20T08:03:51;11.95;;;10.02;;
74523;SDS011;63074;44.696;10.358;2023-08-20T08:06:18;11.95;;;9.25;;
74523;SDS011;63074;44.696;10.358;2023-08-20T08:08:45;12.05;;;8.55;;
74523;SDS011;63074;44.696;10.358;2023-08-20T08:11:11;12.60;;;8.95;;
74523;SDS011;63074;44.696;10.358;2023-08-20T08:13:37;10.63;;;8.75;;
74523;SDS011;63074;44.696;10.358;2023-08-20T08:16:04;10.40;;;8.48;;
74523;SDS011;63074;44.696;10.358;2023-08-20T08:18:30;10.85;;;8.40;;
74523;SDS011;63074;44.696;10.358;2023-08-20T08:20:56;11.75;;;9.00;;
74523;SDS011;63074;44.696;10.358;2023-08-20T08:23:23;9.77;;;8.77;;
74523;SDS011;63074;44.696;10.358;2023-08-20T08:25:49;9.70;;;8.32;;
74523;SDS011;63074;44.696;10.358;2023-08-20T08:28:15;16.27;;;8.38;;
74523;SDS011;63074;44.696;10.358;2023-08-20T08:30:42;9.48;;;8.27;;
74523;SDS011;63074;44.696;10.358;2023-08-20T08:33:08;10.77;;;7.90;;
74523;SDS011;63074;44.696;10.358;2023-08-20T08:35:34;10.43;;;8.70;;
74523;SDS011;63074;44.696;10.358;2023-08-20T08:38:00;9.52;;;7.63;;
74523;SDS011;63074;44.696;10.358;2023-08-20T08:40:29;9.85;;;7.60;;
74523;SDS011;63074;44.696;10.358;2023-08-20T08:42:55;10.30;;;7.68;;
74523;SDS011;63074;44.696;10.358;2023-08-20T08:45:21;9.00;;;7.03;;
74523;SDS011;63074;44.696;10.358;2023-08-20T08:47:48;8.85;;;7.90;;
74523;SDS011;63074;44.696;10.358;2023-08-20T08:50:15;9.38;;;7.30;;
74523;SDS011;63074;44.696;10.358;2023-08-20T08:52:42;12.23;;;7.55;;
74523;SDS011;63074;44.696;10.358;2023-08-20T08:55:12;10.07;;;7.78;;
74523;SDS011;63074;44.696;10.358;2023-08-20T08:57:38;10.05;;;8.07;;
74523;SDS011;63074;44.696;10.358;2023-08-20T09:00:04;10.02;;;7.60;;
74523;SDS011;63074;44.696;10.358;2023-08-20T09:02:32;10.65;;;7.93;;
74523;SDS011;63074;44.696;10.358;2023-08-20T09:04:58;11.25;;;7.45;;
74523;SDS011;63074;44.696;10.358;2023-08-20T09:07:24;11.07;;;7.75;;
74523;SDS011;63074;44.696;10.358;2023-08-20T09:09:50;8.30;;;7.20;;
74523;SDS011;63074;44.696;10.358;2023-08-20T09:12:22;10.45;;;7.78;;
74523;SDS011;63074;44.696;10.358;2023-08-20T09:14:49;8.32;;;7.00;;
74523;SDS011;63074;44.696;10.358;2023-08-20T09:17:17;9.50;;;7.03;;
74523;SDS011;63074;44.696;10.358;2023-08-20T09:19:45;8.48;;;7.10;;
74523;SDS011;63074;44.696;10.358;2023-08-20T09:22:11;8.93;;;6.70;;
74523;SDS011;63074;44.696;10.358;2023-08-20T09:24:39;11.13;;;7.68;;
74523;SDS011;63074;44.696;10.358;2023-08-20T09:27:07;9.65;;;6.55;;
74523;SDS011;63074;44.696;10.358;2023-08-20T09:29:55;9.65;;;6.47;;
74523;SDS011;63074;44.696;10.358;2023-08-20T09:32:25;9.23;;;7.18;;
74523;SDS011;63074;44.696;10.358;2023-08-20T09:34:55;8.63;;;6.38;;
74523;SDS011;63074;44.696;10.358;2023-08-20T09:37:22;8.68;;;6.53;;
74523;SDS011;63074;44.696;10.358;2023-08-20T09:39:49;9.80;;;7.53;;
74523;SDS011;63074;44.696;10.358;2023-08-20T09:42:16;10.35;;;7.07;;
74523;SDS011;63074;44.696;10.358;2023-08-20T09:44:43;10.57;;;7.53;;
74523;SDS011;63074;44.696;10.358;2023-08-20T09:47:10;8.82;;;7.22;;
74523;SDS011;63074;44.696;10.358;2023-08-20T09:49:41;9.23;;;7.30;;
74523;SDS011;63074;44.696;10.358;2023-08-20T09:52:16;8.95;;;6.20;;
74523;SDS011;63074;44.696;10.358;2023-08-20T09:54:51;7.43;;;6.68;;
74523;SDS011;63074;44.696;10.358;2023-08-20T09:57:32;8.98;;;7.28;;
74523;SDS011;63074;44.696;10.358;2023-08-20T10:00:00;8.88;;;7.32;;
74523;SDS011;63074;44.696;10.358;2023-08-20T10:02:28;7.97;;;6.82;;
74523;SDS011;63074;44.696;10.358;2023-08-20T10:04:55;9.13;;;7.13;;
74523;SDS011;63074;44.696;10.358;2023-08-20T10:07:22;9.02;;;7.32;;
74523;SDS011;63074;44.696;10.358;2023-08-20T10:09:50;7.68;;;6.95;;
74523;SDS011;63074;44.696;10.358;2023-08-20T10:12:17;9.27;;;7.68;;
74523;SDS011;63074;44.696;10.358;2023-08-20T10:14:45;9.40;;;6.90;;
74523;SDS011;63074;44.696;10.358;2023-08-20T10:17:11;8.32;;;7.47;;
74523;SDS011;63074;44.696;10.358;2023-08-20T10:19:37;8.15;;;7.35;;
74523;SDS011;63074;44.696;10.358;2023-08-20T10:22:04;8.05;;;6.93;;
74523;SDS011;63074;44.696;10.358;2023-08-20T10:24:47;6.57;;;5.78;;
74523;SDS011;63074;44.696;10.358;2023-08-20T10:27:37;7.70;;;6.40;;
74523;SDS011;63074;44.696;10.358;2023-08-20T10:30:16;8.25;;;6.07;;
74523;SDS011;63074;44.696;10.358;2023-08-20T10:32:49;9.70;;;7.78;;
74523;SDS011;63074;44.696;10.358;2023-08-20T10:35:26;7.13;;;6.13;;
74523;SDS011;63074;44.696;10.358;2023-08-20T10:41:13;8.45;;;6.30;;
74523;SDS011;63074;44.696;10.358;2023-08-20T10:46:32;7.35;;;5.95;;
74523;SDS011;63074;44.696;10.358;2023-08-20T10:51:16;7.90;;;6.38;;
74523;SDS011;63074;44.696;10.358;2023-08-20T10:59:09;8.23;;;6.38;;
74523;SDS011;63074;44.696;10.358;2023-08-20T11:01:38;8.00;;;6.97;;
74523;SDS011;63074;44.696;10.358;2023-08-20T11:04:05;8.00;;;6.72;;
74523;SDS011;63074;44.696;10.358;2023-08-20T11:06:32;8.55;;;6.63;;
74523;SDS011;63074;44.696;10.358;2023-08-20T11:08:58;6.90;;;5.65;;
74523;SDS011;63074;44.696;10.358;2023-08-20T11:11:25;7.70;;;5.88;;
74523;SDS011;63074;44.696;10.358;2023-08-20T11:13:51;6.68;;;6.05;;
74523;SDS011;63074;44.696;10.358;2023-08-20T11:16:18;6.88;;;5.70;;
74523;SDS011;63074;44.696;10.358;2023-08-20T11:18:45;6.95;;;6.25;;
74523;SDS011;63074;44.696;10.358;2023-08-20T11:21:11;7.57;;;6.88;;
74523;SDS011;63074;44.696;10.358;2023-08-20T11:23:38;6.72;;;6.03;;
74523;SDS011;63074;44.696;10.358;2023-08-20T11:26:07;6.65;;;5.95;;
74523;SDS011;63074;44.696;10.358;2023-08-20T11:28:33;7.07;;;6.38;;
74523;SDS011;63074;44.696;10.358;2023-08-20T11:30:59;6.70;;;6.07;;
74523;SDS011;63074;44.696;10.358;2023-08-20T11:33:27;7.00;;;6.25;;
74523;SDS011;63074;44.696;10.358;2023-08-20T11:35:54;7.50;;;6.22;;
74523;SDS011;63074;44.696;10.358;2023-08-20T11:38:22;7.40;;;6.30;;
74523;SDS011;63074;44.696;10.358;2023-08-20T11:40:50;7.78;;;6.65;;
74523;SDS011;63074;44.696;10.358;2023-08-20T11:43:16;7.18;;;5.88;;
74523;SDS011;63074;44.696;10.358;2023-08-20T11:45:46;7.03;;;5.95;;
74523;SDS011;63074;44.696;10.358;2023-08-20T11:48:14;6.88;;;6.18;;
74523;SDS011;63074;44.696;10.358;2023-08-20T11:50:41;6.95;;;6.28;;
74523;SDS011;63074;44.696;10.358;2023-08-20T11:53:08;9.00;;;6.97;;
74523;SDS011;63074;44.696;10.358;2023-08-20T11:55:35;8.25;;;7.30;;
74523;SDS011;63074;44.696;10.358;2023-08-20T11:58:04;7.28;;;6.57;;
74523;SDS011;63074;44.696;10.358;2023-08-20T12:00:32;7.10;;;6.20;;
74523;SDS011;63074;44.696;10.358;2023-08-20T12:02:58;8.45;;;6.63;;
74523;SDS011;63074;44.696;10.358;2023-08-20T12:05:28;8.13;;;6.35;;
74523;SDS011;63074;44.696;10.358;2023-08-20T12:07:55;6.60;;;5.72;;
74523;SDS011;63074;44.696;10.358;2023-08-20T12:10:23;7.13;;;6.28;;
74523;SDS011;63074;44.696;10.358;2023-08-20T12:12:50;6.80;;;6.10;;
74523;SDS011;63074;44.696;10.358;2023-08-20T12:15:17;7.43;;;6.28;;
74523;SDS011;63074;44.696;10.358;2023-08-20T12:18:05;7.72;;;5.88;;
74523;SDS011;63074;44.696;10.358;2023-08-20T12:20:31;6.82;;;6.13;;
74523;SDS011;63074;44.696;10.358;2023-08-20T12:22:59;7.47;;;6.68;;
74523;SDS011;63074;44.696;10.358;2023-08-20T12:25:31;6.88;;;5.57;;
74523;SDS011;63074;44.696;10.358;2023-08-20T12:28:02;7.05;;;6.38;;
74523;SDS011;63074;44.696;10.358;2023-08-20T12:30:30;7.30;;;6.55;;
74523;SDS011;63074;44.696;10.358;2023-08-20T12:32:57;7.80;;;6.85;;
74523;SDS011;63074;44.696;10.358;2023-08-20T12:35:23;7.65;;;6.40;;
74523;SDS011;63074;44.696;10.358;2023-08-20T12:37:49;8.65;;;6.13;;
74523;SDS011;63074;44.696;10.358;2023-08-20T12:40:15;7.53;;;6.70;;
74523;SDS011;63074;44.696;10.358;2023-08-20T12:42:42;7.22;;;6.53;;
74523;SDS011;63074;44.696;10.358;2023-08-20T12:45:09;6.53;;;5.38;;
74523;SDS011;63074;44.696;10.358;2023-08-20T12:50:04;6.40;;;5.80;;
74523;SDS011;63074;44.696;10.358;2023-08-20T12:52:31;7.40;;;6.07;;
74523;SDS011;63074;44.696;10.358;2023-08-20T12:54:58;7.07;;;6.38;;
74523;SDS011;63074;44.696;10.358;2023-08-20T12:57:24;7.22;;;5.53;;
74523;SDS011;63074;44.696;10.358;2023-08-20T12:59:50;7.07;;;6.38;;
74523;SDS011;63074;44.696;10.358;2023-08-20T13:02:17;8.45;;;6.10;;
74523;SDS011;63074;44.696;10.358;2023-08-20T13:04:45;6.43;;;5.78;;
74523;SDS011;63074;44.696;10.358;2023-08-20T13:07:11;7.53;;;6.57;;
74523;SDS011;63074;44.696;10.358;2023-08-20T13:09:38;6.80;;;5.97;;
74523;SDS011;63074;44.696;10.358;2023-08-20T13:12:05;6.85;;;6.03;;
74523;SDS011;63074;44.696;10.358;2023-08-20T13:14:35;6.38;;;5.78;;
74523;SDS011;63074;44.696;10.358;2023-08-20T13:17:01;6.80;;;5.80;;
74523;SDS011;63074;44.696;10.358;2023-08-20T13:19:28;7.85;;;6.63;;
74523;SDS011;63074;44.696;10.358;2023-08-20T13:21:54;8.10;;;6.82;;
74523;SDS011;63074;44.696;10.358;2023-08-20T13:24:20;8.25;;;5.95;;
74523;SDS011;63074;44.696;10.358;2023-08-20T13:26:46;8.30;;;6.28;;
74523;SDS011;63074;44.696;10.358;2023-08-20T13:29:13;6.75;;;5.75;;
74523;SDS011;63074;44.696;10.358;2023-08-20T13:31:39;6.03;;;5.43;;
74523;SDS011;63074;44.696;10.358;2023-08-20T13:34:05;6.57;;;5.97;;
74523;SDS011;63074;44.696;10.358;2023-08-20T13:36:31;8.57;;;6.72;;
74523;SDS011;63074;44.696;10.358;2023-08-20T13:38:58;6.63;;;5.93;;
74523;SDS011;63074;44.696;10.358;2023-08-20T13:41:24;8.07;;;5.90;;
74523;SDS011;63074;44.696;10.358;2023-08-20T13:43:50;5.57;;;4.85;;
74523;SDS011;63074;44.696;10.358;2023-08-20T13:46:17;6.18;;;5.10;;
74523;SDS011;63074;44.696;10.358;2023-08-20T13:48:43;6.10;;;5.50;;
74523;SDS011;63074;44.696;10.358;2023-08-20T13:51:09;6.43;;;5.03;;
74523;SDS011;63074;44.696;10.358;2023-08-20T13:53:35;7.53;;;5.25;;
74523;SDS011;63074;44.696;10.358;2023-08-20T13:56:01;7.15;;;5.93;;
74523;SDS011;63074;44.696;10.358;2023-08-20T13:58:28;6.60;;;5.25;;
74523;SDS011;63074;44.696;10.358;2023-08-20T14:00:54;6.60;;;5.70;;
74523;SDS011;63074;44.696;10.358;2023-08-20T14:03:20;5.68;;;5.13;;
74523;SDS011;63074;44.696;10.358;2023-08-20T14:05:46;6.78;;;6.05;;
74523;SDS011;63074;44.696;10.358;2023-08-20T14:08:13;6.80;;;6.10;;
74523;SDS011;63074;44.696;10.358;2023-08-20T14:10:39;6.70;;;6.00;;
74523;SDS011;63074;44.696;10.358;2023-08-20T14:13:05;7.55;;;6.05;;
74523;SDS011;63074;44.696;10.358;2023-08-20T14:15:31;7.15;;;6.45;;
74523;SDS011;63074;44.696;10.358;2023-08-20T14:17:57;6.20;;;5.60;;
74523;SDS011;63074;44.696;10.358;2023-08-20T14:20:23;7.28;;;6.03;;
74523;SDS011;63074;44.696;10.358;2023-08-20T14:22:50;6.57;;;5.85;;
74523;SDS011;63074;44.696;10.358;2023-08-20T14:25:16;6.75;;;6.15;;
74523;SDS011;63074;44.696;10.358;2023-08-20T14:27:42;6.43;;;5.82;;
74523;SDS011;63074;44.696;10.358;2023-08-20T14:30:08;6.57;;;5.88;;
74523;SDS011;63074;44.696;10.358;2023-08-20T14:32:35;6.07;;;5.47;;
74523;SDS011;63074;44.696;10.358;2023-08-20T14:35:01;6.65;;;5.75;;
74523;SDS011;63074;44.696;10.358;2023-08-20T14:37:29;7.68;;;6.20;;
74523;SDS011;63074;44.696;10.358;2023-08-20T14:39:55;6.45;;;5.80;;
74523;SDS011;63074;44.696;10.358;2023-08-20T14:42:21;6.95;;;5.30;;
74523;SDS011;63074;44.696;10.358;2023-08-20T14:44:47;8.32;;;6.07;;
74523;SDS011;63074;44.696;10.358;2023-08-20T14:47:13;8.18;;;6.38;;